Time;durP1;ratioP1;P1;durP2;ratioP2;P2;SDS_P1;SDS_P2;PMS_P1;PMS_P2;Temp;Humidity;BMP_temperature;BMP_pressure;BME280_temperature;BME280_humidity;BME280_pressure;Samples;Min_cycle;Max_cycle;Signal;HPM_P1;HPM_P2
2023/03/31 00:00:27;;;;;;;62.10;59.25;;;;;;;9.65;83.74;97628.75;4993781;28;20061;-74
2023/03/31 00:02:54;;;;;;;60.72;57.75;;;;;;;9.66;83.48;97625.00;5007951;28;20030;-73
2023/03/31 00:05:23;;;;;;;60.67;57.85;;;;;;;9.68;83.74;97628.22;5002430;28;20042;-73
2023/03/31 00:07:59;;;;;;;58.97;55.97;;;;;;;9.67;83.18;97625.81;5001232;28;20062;-73
2023/03/31 00:10:26;;;;;;;60.28;57.40;;;;;;;9.68;83.29;97612.09;5019663;28;20520;-73
2023/03/31 00:12:51;;;;;;;58.33;55.35;;;;;;;9.72;83.78;97601.66;5006793;28;20034;-73
2023/03/31 00:15:17;;;;;;;58.17;55.40;;;;;;;9.54;84.05;97592.09;5002853;28;20026;-73
2023/03/31 00:17:42;;;;;;;60.55;57.35;;;;;;;9.48;83.52;97595.75;5015538;28;20109;-72
2023/03/31 00:20:11;;;;;;;61.10;58.30;;;;;;;9.56;84.17;97581.88;5000280;28;20101;-73
2023/03/31 00:22:37;;;;;;;59.90;57.15;;;;;;;9.60;84.02;97582.19;5006797;28;20053;-74
2023/03/31 00:25:04;;;;;;;61.08;58.17;;;;;;;9.55;83.71;97579.44;5019236;28;20038;-72
2023/03/31 00:27:29;;;;;;;60.35;57.45;;;;;;;9.52;84.28;97580.75;5006599;28;20037;-72
2023/03/31 00:29:55;;;;;;;61.90;58.85;;;;;;;9.48;84.40;97566.19;5003287;28;20035;-72
2023/03/31 00:32:20;;;;;;;60.47;57.33;;;;;;;9.38;84.62;97549.97;5015865;28;20033;-73
2023/03/31 00:34:45;;;;;;;59.75;56.97;;;;;;;9.55;84.05;97552.56;5002611;28;20519;-73
2023/03/31 00:37:14;;;;;;;62.13;59.20;;;;;;;9.48;83.97;97558.13;4993184;28;20036;-72
2023/03/31 00:39:41;;;;;;;59.55;56.72;;;;;;;9.55;83.75;97548.00;5002259;28;20480;-74
2023/03/31 00:42:12;;;;;;;63.50;60.55;;;;;;;9.50;84.45;97553.31;5010097;28;20021;-73
2023/03/31 00:45:15;;;;;;;63.60;60.80;;;;;;;9.45;84.24;97542.50;4995831;28;20034;-73
2023/03/31 00:47:51;;;;;;;60.05;56.97;;;;;;;9.44;84.84;97540.91;5013732;28;20030;-74
2023/03/31 00:50:20;;;;;;;64.28;61.28;;;;;;;9.37;84.70;97534.91;5028946;28;20046;-73
2023/03/31 00:52:47;;;;;;;64.78;61.78;;;;;;;9.43;83.81;97528.50;4995919;28;20133;-74
2023/03/31 00:55:17;;;;;;;63.80;60.70;;;;;;;9.25;85.18;97531.56;4995597;28;20030;-74
2023/03/31 00:57:45;;;;;;;64.03;60.83;;;;;;;9.20;85.27;97518.06;5000371;28;20609;-73
2023/03/31 01:00:15;;;;;;;63.83;60.83;;;;;;;9.27;85.21;97513.31;5006054;28;20041;-73
2023/03/31 01:02:45;;;;;;;64.57;61.35;;;;;;;9.27;85.02;97510.63;4996619;28;20388;-72
2023/03/31 01:05:10;;;;;;;62.53;59.72;;;;;;;9.31;84.80;97500.19;4983321;28;20026;-72
2023/03/31 01:07:45;;;;;;;62.00;59.25;;;;;;;9.21;84.94;97498.22;4995988;28;20077;-73
2023/03/31 01:10:11;;;;;;;60.13;57.30;;;;;;;9.29;84.97;97494.25;4999994;28;20060;-72
2023/03/31 01:12:39;;;;;;;60.65;57.78;;;;;;;9.23;84.74;97490.69;5011905;28;20468;-72
2023/03/31 01:15:05;;;;;;;62.33;59.40;;;;;;;9.25;85.08;97483.19;5011886;28;20081;-72
2023/03/31 01:17:31;;;;;;;64.72;61.70;;;;;;;9.22;84.96;97478.31;5012856;28;20053;-72
2023/03/31 01:20:18;;;;;;;65.85;62.47;;;;;;;9.18;85.11;97469.16;4995759;28;20030;-73
2023/03/31 01:22:58;;;;;;;61.95;58.90;;;;;;;9.13;84.86;97463.72;4998624;28;20040;-74
2023/03/31 01:26:01;;;;;;;64.30;61.05;;;;;;;8.94;84.85;97459.75;5016495;28;20042;-73
2023/03/31 01:28:29;;;;;;;60.88;57.97;;;;;;;8.96;85.08;97453.06;5002172;28;20034;-74
2023/03/31 01:31:20;;;;;;;63.78;60.67;;;;;;;9.00;84.52;97437.28;4998706;28;20032;-73
2023/03/31 01:34:07;;;;;;;63.28;60.47;;;;;;;8.85;85.43;97445.16;4998156;28;20397;-73
2023/03/31 01:37:05;;;;;;;64.22;61.28;;;;;;;9.02;85.42;97446.69;5011403;28;20049;-72
2023/03/31 01:39:57;;;;;;;63.65;60.80;;;;;;;8.96;85.00;97441.53;4982516;28;20050;-72
2023/03/31 01:42:31;;;;;;;62.30;59.30;;;;;;;8.95;84.95;97439.91;4998051;28;20060;-73
2023/03/31 01:45:38;;;;;;;58.50;55.47;;;;;;;8.79;85.53;97435.44;5012488;28;20052;-72
2023/03/31 01:48:40;;;;;;;59.78;57.00;;;;;;;8.63;86.61;97430.94;5052890;22;20068;-78
2023/03/31 01:51:15;;;;;;;56.90;54.35;;;;;;;8.84;86.05;97430.13;5018371;28;20052;-78
2023/03/31 01:54:02;;;;;;;61.17;58.13;;;;;;;8.78;86.11;97417.69;5022909;28;20037;-78
2023/03/31 01:56:36;;;;;;;59.95;57.15;;;;;;;8.66;86.04;97419.72;5032530;28;20029;-76
2023/03/31 01:59:02;;;;;;;63.30;60.42;;;;;;;8.75;85.77;97412.84;5012292;28;20082;-77
2023/03/31 02:01:40;;;;;;;60.75;57.65;;;;;;;8.74;86.40;97411.22;5015055;28;20034;-77
2023/03/31 02:04:19;;;;;;;62.80;59.60;;;;;;;8.77;85.66;97416.09;5020548;28;20041;-76
2023/03/31 02:06:51;;;;;;;60.92;57.88;;;;;;;8.82;85.71;97397.34;5025695;28;20033;-76
2023/03/31 02:09:22;;;;;;;59.50;56.47;;;;;;;8.75;85.59;97402.91;4996789;28;20034;-77
2023/03/31 02:11:48;;;;;;;58.67;55.83;;;;;;;8.83;85.11;97399.78;5005270;28;20065;-76
2023/03/31 02:14:20;;;;;;;56.95;54.25;;;;;;;8.86;85.68;97401.16;5009559;28;20136;-76
2023/03/31 02:16:48;;;;;;;58.40;55.40;;;;;;;8.88;85.11;97382.91;4987701;28;20070;-77
2023/03/31 02:19:17;;;;;;;56.92;54.05;;;;;;;8.93;85.14;97382.97;5020515;28;20021;-77
2023/03/31 02:21:45;;;;;;;57.70;54.65;;;;;;;8.81;85.28;97380.44;5022640;28;20043;-76
2023/03/31 02:24:11;;;;;;;55.15;52.55;;;;;;;8.84;85.61;97379.13;5019529;28;20029;-76
2023/03/31 02:26:39;;;;;;;57.70;54.40;;;;;;;8.91;84.96;97375.13;5007027;28;20033;-77
2023/03/31 02:29:05;;;;;;;55.00;52.15;;;;;;;8.94;85.09;97368.44;5000786;28;20044;-77
2023/03/31 02:31:47;;;;;;;57.53;54.67;;;;;;;8.76;85.52;97371.50;5008730;28;20041;-76
2023/03/31 02:34:12;;;;;;;59.60;56.50;;;;;;;8.90;85.45;97381.59;5012026;28;20180;-78
2023/03/31 02:36:40;;;;;;;60.42;57.42;;;;;;;8.83;85.52;97362.19;5027283;28;20625;-77
2023/03/31 02:39:08;;;;;;;56.95;54.10;;;;;;;8.99;84.49;97368.50;5005309;28;20064;-78
2023/03/31 02:41:34;;;;;;;55.17;52.70;;;;;;;8.97;85.22;97354.53;4988000;28;20091;-77
2023/03/31 02:44:00;;;;;;;56.50;53.72;;;;;;;8.94;85.16;97358.53;5009415;28;20125;-76
2023/03/31 02:46:26;;;;;;;58.13;55.28;;;;;;;8.91;85.31;97347.50;5040635;28;20049;-77
2023/03/31 02:48:56;;;;;;;56.42;53.53;;;;;;;9.03;84.33;97340.09;5017929;28;20025;-77
2023/03/31 02:51:48;;;;;;;55.42;52.83;;;;;;;8.87;85.52;97341.00;5017956;28;20034;-78
2023/03/31 02:54:34;;;;;;;55.67;52.92;;;;;;;9.01;84.77;97342.19;5021668;28;20446;-78
2023/03/31 02:57:41;;;;;;;57.65;54.75;;;;;;;8.93;85.37;97329.25;5001863;28;20040;-77
2023/03/31 03:00:24;;;;;;;57.63;54.53;;;;;;;9.01;84.85;97328.78;5007712;28;20038;-78
2023/03/31 03:03:21;;;;;;;54.70;52.10;;;;;;;9.08;83.87;97318.63;4994566;28;20038;-79
2023/03/31 03:06:26;;;;;;;56.38;53.25;;;;;;;9.00;84.49;97324.50;5008585;28;20478;-78
2023/03/31 03:09:21;;;;;;;58.35;55.35;;;;;;;8.82;85.38;97316.81;5017561;28;20025;-78
2023/03/31 03:12:09;;;;;;;56.38;53.20;;;;;;;9.01;84.59;97315.34;5011477;28;20391;-79
2023/03/31 03:14:46;;;;;;;57.78;54.92;;;;;;;9.00;84.01;97308.38;5021623;28;20178;-81
2023/03/31 03:17:26;;;;;;;60.55;57.10;;;;;;;8.89;84.72;97309.34;5021340;28;20121;-81
2023/03/31 03:19:57;;;;;;;56.80;53.85;;;;;;;9.01;84.47;97304.59;5008989;28;20376;-79
2023/03/31 03:22:23;;;;;;;58.42;55.33;;;;;;;8.98;84.11;97299.78;5020263;28;20042;-79
2023/03/31 03:24:49;;;;;;;54.58;51.78;;;;;;;8.99;84.98;97293.31;5025925;28;20037;-77
2023/03/31 03:27:15;;;;;;;54.90;52.20;;;;;;;9.02;84.12;97284.75;5027347;28;20479;-80
2023/03/31 03:29:40;;;;;;;56.20;53.20;;;;;;;9.03;84.37;97287.16;5022156;28;20082;-76
2023/03/31 03:32:05;;;;;;;55.70;52.70;;;;;;;9.03;83.99;97283.69;5019960;28;20041;-78
2023/03/31 03:34:31;;;;;;;50.50;47.75;;;;;;;9.07;84.29;97276.75;4990409;28;20023;-78
2023/03/31 03:36:56;;;;;;;51.83;49.10;;;;;;;9.03;83.71;97259.53;5004968;28;20092;-77
2023/03/31 03:39:22;;;;;;;53.53;50.65;;;;;;;9.22;83.07;97262.63;5021185;28;20022;-78
2023/03/31 03:41:47;;;;;;;48.65;46.00;;;;;;;9.17;82.67;97241.88;5020289;28;20066;-79
2023/03/31 03:44:13;;;;;;;50.65;48.03;;;;;;;9.18;82.74;97240.81;5009505;28;20120;-76
2023/03/31 03:46:38;;;;;;;51.30;48.80;;;;;;;9.21;82.47;97229.56;5025136;28;20380;-76
2023/03/31 03:49:03;;;;;;;50.42;47.55;;;;;;;9.16;83.03;97242.97;5015092;28;20105;-78
2023/03/31 03:51:29;;;;;;;49.45;46.88;;;;;;;9.24;82.71;97245.16;5009983;28;20041;-76
2023/03/31 03:53:54;;;;;;;51.20;48.40;;;;;;;9.31;82.89;97243.03;5021427;28;20421;-77
2023/03/31 03:56:20;;;;;;;50.80;48.22;;;;;;;9.06;83.31;97234.81;5005539;28;20061;-77
2023/03/31 03:58:46;;;;;;;51.65;48.95;;;;;;;9.21;82.90;97240.31;5009817;28;20045;-78
2023/03/31 04:01:11;;;;;;;55.92;53.03;;;;;;;9.09;82.94;97237.00;5018365;28;20072;-77
2023/03/31 04:03:37;;;;;;;53.50;50.60;;;;;;;9.07;83.71;97225.72;5009585;28;20017;-77
2023/03/31 04:06:02;;;;;;;55.03;52.20;;;;;;;9.12;83.72;97231.13;5026311;28;20458;-77
2023/03/31 04:08:28;;;;;;;52.47;49.58;;;;;;;9.01;83.34;97218.66;5029233;28;20022;-77
2023/03/31 04:10:53;;;;;;;52.67;49.67;;;;;;;9.08;83.67;97216.56;5029193;28;20041;-76
2023/03/31 04:13:19;;;;;;;51.65;48.97;;;;;;;9.05;83.82;97206.38;5021797;28;20033;-79
2023/03/31 04:15:44;;;;;;;52.30;49.40;;;;;;;9.20;83.67;97195.69;5025268;28;20482;-79
2023/03/31 04:18:21;;;;;;;51.80;49.25;;;;;;;9.01;83.42;97199.88;4990126;28;20497;-79
2023/03/31 04:21:02;;;;;;;53.45;50.58;;;;;;;9.01;83.70;97197.19;5007870;28;20044;-78
2023/03/31 04:23:31;;;;;;;56.03;53.00;;;;;;;9.04;84.61;97197.50;5028110;28;20068;-76
2023/03/31 04:25:57;;;;;;;55.28;52.25;;;;;;;8.99;84.96;97188.59;5018355;28;20022;-77
2023/03/31 04:28:22;;;;;;;55.70;52.80;;;;;;;9.03;84.55;97185.13;5011245;28;20545;-77
2023/03/31 04:30:48;;;;;;;55.50;52.60;;;;;;;9.10;85.26;97181.41;5023041;28;20029;-77
2023/03/31 04:33:14;;;;;;;57.78;54.55;;;;;;;9.03;85.44;97168.22;5011198;28;20477;-78
2023/03/31 04:35:51;;;;;;;54.33;51.35;;;;;;;9.00;85.25;97166.88;5031828;28;20132;-79
2023/03/31 04:40:50;;;;;;;55.78;52.70;;;;;;;9.16;84.49;97165.06;5031356;28;20104;-78
2023/03/31 04:43:16;;;;;;;57.17;53.70;;;;;;;8.99;85.29;97162.53;5000666;28;20442;-77
2023/03/31 04:45:42;;;;;;;58.28;54.90;;;;;;;8.95;86.13;97149.91;4988924;28;20116;-78
2023/03/31 04:48:08;;;;;;;54.22;51.25;;;;;;;8.99;85.30;97151.00;5003696;28;20527;-79
2023/03/31 04:50:34;;;;;;;65.70;61.40;;;;;;;8.76;86.52;97151.38;5011762;28;20115;-79
2023/03/31 04:52:59;;;;;;;58.42;55.13;;;;;;;8.76;86.45;97135.28;5004960;28;20068;-79
2023/03/31 04:55:24;;;;;;;53.53;50.38;;;;;;;8.73;86.19;97147.34;5019237;28;20475;-78
2023/03/31 04:57:50;;;;;;;52.17;49.25;;;;;;;8.79;86.53;97146.31;4988273;28;20033;-80
2023/03/31 05:00:16;;;;;;;55.47;52.53;;;;;;;8.80;86.44;97131.00;5001970;28;20029;-78
2023/03/31 05:02:42;;;;;;;53.08;50.05;;;;;;;8.75;87.09;97141.72;5021453;28;20034;-78
2023/03/31 05:05:08;;;;;;;53.65;50.75;;;;;;;8.76;87.42;97151.38;5002108;28;20021;-78
2023/03/31 05:07:33;;;;;;;55.05;51.88;;;;;;;8.83;86.41;97157.34;5018362;28;20060;-78
2023/03/31 05:09:58;;;;;;;58.80;55.17;;;;;;;8.76;86.33;97149.50;5006047;28;20386;-79
2023/03/31 05:12:24;;;;;;;56.20;52.88;;;;;;;8.79;86.42;97143.63;5002195;28;20042;-77
2023/03/31 05:14:50;;;;;;;56.00;52.95;;;;;;;8.88;86.59;97152.00;4985730;28;20029;-77
2023/03/31 05:17:16;;;;;;;53.60;50.83;;;;;;;8.75;87.38;97131.00;5002760;28;20100;-77
2023/03/31 05:19:42;;;;;;;52.20;49.20;;;;;;;8.81;87.29;97128.06;4992487;28;20029;-77
2023/03/31 05:22:07;;;;;;;55.17;51.83;;;;;;;8.73;86.83;97111.63;5025711;28;20044;-76
2023/03/31 05:24:33;;;;;;;55.78;52.45;;;;;;;8.66;87.95;97119.13;5014989;28;20155;-76
2023/03/31 05:26:58;;;;;;;56.03;52.72;;;;;;;8.70;87.61;97109.47;4998694;28;20480;-77
2023/03/31 05:29:24;;;;;;;54.92;51.60;;;;;;;8.62;87.35;97091.16;4999346;28;20490;-77
2023/03/31 05:31:49;;;;;;;53.95;50.60;;;;;;;8.71;86.85;97085.06;4998614;28;20096;-77
2023/03/31 05:34:15;;;;;;;53.65;50.45;;;;;;;8.55;87.43;97080.66;4998536;28;20051;-76
2023/03/31 05:36:42;;;;;;;54.55;51.42;;;;;;;8.53;88.17;97077.44;4998680;28;20044;-77
2023/03/31 05:39:08;;;;;;;57.45;54.05;;;;;;;8.66;87.42;97070.81;5015074;28;20540;-76
2023/03/31 05:41:34;;;;;;;59.70;55.97;;;;;;;8.59;87.24;97070.25;4986842;28;20034;-76
2023/03/31 05:44:00;;;;;;;58.35;55.03;;;;;;;8.64;87.69;97068.38;4992117;28;20080;-76
2023/03/31 05:46:26;;;;;;;60.60;57.10;;;;;;;8.61;87.18;97057.38;5007392;28;20376;-76
2023/03/31 05:48:51;;;;;;;59.60;56.03;;;;;;;8.84;86.42;97070.38;4998342;28;20068;-76
2023/03/31 05:51:17;;;;;;;59.72;56.03;;;;;;;8.86;86.63;97052.13;4998733;28;20554;-76
2023/03/31 05:53:43;;;;;;;60.40;56.60;;;;;;;8.86;86.31;97060.19;4998424;28;20033;-75
2023/03/31 05:56:08;;;;;;;63.28;59.35;;;;;;;8.84;86.59;97048.91;5002713;28;20384;-76
2023/03/31 05:58:35;;;;;;;62.35;58.60;;;;;;;8.80;87.17;97045.09;5007930;28;20076;-76
2023/03/31 06:01:07;;;;;;;61.38;57.88;;;;;;;8.76;87.41;97039.47;4987634;28;20407;-74
2023/03/31 06:03:34;;;;;;;58.08;54.85;;;;;;;8.83;86.38;97023.94;5029828;28;20151;-76
2023/03/31 06:06:00;;;;;;;58.72;55.30;;;;;;;8.91;86.69;97036.06;5014234;28;20025;-76
2023/03/31 06:08:26;;;;;;;59.03;55.28;;;;;;;8.82;86.60;97043.78;4998157;28;20164;-76
2023/03/31 06:10:51;;;;;;;57.28;53.90;;;;;;;8.79;86.85;97038.13;4984889;28;20113;-76
2023/03/31 06:13:17;;;;;;;55.85;52.47;;;;;;;8.92;87.04;97033.09;5027404;28;20123;-76
2023/03/31 06:15:42;;;;;;;57.03;53.90;;;;;;;8.76;87.13;97030.59;4978840;28;20065;-76
2023/03/31 06:18:09;;;;;;;56.80;53.70;;;;;;;9.00;86.32;97023.72;5014513;28;20052;-77
2023/03/31 06:20:35;;;;;;;58.53;54.92;;;;;;;8.93;86.40;97012.44;5001329;28;20103;-77
2023/03/31 06:23:01;;;;;;;59.92;56.33;;;;;;;8.96;86.47;96998.47;5008421;28;20510;-76
2023/03/31 06:25:26;;;;;;;58.65;55.15;;;;;;;8.95;86.74;97007.59;4998062;28;20057;-77
2023/03/31 06:27:52;;;;;;;59.20;55.60;;;;;;;8.97;86.13;97008.13;4994503;28;20088;-77
2023/03/31 06:30:17;;;;;;;60.85;57.25;;;;;;;9.11;85.80;97003.88;4997723;28;20064;-78
2023/03/31 06:32:42;;;;;;;57.00;54.00;;;;;;;9.05;86.00;97010.31;4997660;28;20388;-75
2023/03/31 06:35:08;;;;;;;60.30;56.70;;;;;;;9.07;85.70;97008.19;5019391;28;20025;-80
2023/03/31 06:37:33;;;;;;;58.42;55.15;;;;;;;9.11;85.69;97003.88;4984079;28;20026;-78
2023/03/31 06:39:59;;;;;;;57.53;54.05;;;;;;;8.98;85.86;97004.41;5032178;28;20465;-77
2023/03/31 06:42:24;;;;;;;56.80;53.80;;;;;;;8.89;86.09;97012.13;4994740;28;20036;-77
2023/03/31 06:44:50;;;;;;;59.55;56.08;;;;;;;9.02;86.62;97006.28;4998726;28;20017;-77
2023/03/31 06:47:15;;;;;;;58.67;55.45;;;;;;;8.91;86.91;97030.69;5032324;28;20037;-78
2023/03/31 06:49:40;;;;;;;56.40;53.10;;;;;;;8.89;86.84;97033.59;5011201;28;20021;-78
2023/03/31 06:52:06;;;;;;;59.22;55.83;;;;;;;8.93;86.89;97033.91;5031297;28;20045;-77
2023/03/31 06:54:31;;;;;;;57.50;54.45;;;;;;;9.06;86.37;97030.72;5001568;28;20049;-77
2023/03/31 06:56:57;;;;;;;56.80;53.80;;;;;;;8.85;88.05;97026.34;4980463;28;20072;-77
2023/03/31 06:59:22;;;;;;;55.75;52.85;;;;;;;8.84;88.07;97030.13;4995749;28;20041;-77
2023/03/31 07:01:49;;;;;;;52.47;49.42;;;;;;;8.99;88.14;97027.47;5013272;28;20476;-77
2023/03/31 07:04:14;;;;;;;53.38;50.20;;;;;;;8.91;87.88;97019.94;4996011;28;20116;-77
2023/03/31 07:06:40;;;;;;;53.78;50.60;;;;;;;8.69;88.54;97016.59;5013649;28;20075;-77
2023/03/31 07:09:05;;;;;;;52.35;49.45;;;;;;;8.73;88.61;97025.75;5013842;28;20494;-77
2023/03/31 07:11:31;;;;;;;54.63;51.33;;;;;;;8.83;88.93;97029.28;4997145;28;20068;-77
2023/03/31 07:13:56;;;;;;;51.95;48.83;;;;;;;8.67;89.43;97029.47;4993848;28;20025;-77
2023/03/31 07:16:22;;;;;;;53.13;49.67;;;;;;;8.74;89.18;97025.50;4997085;28;20025;-77
2023/03/31 07:18:49;;;;;;;52.83;49.60;;;;;;;8.77;89.25;97026.84;5010079;28;20510;-77
2023/03/31 07:21:14;;;;;;;53.15;49.92;;;;;;;8.78;89.24;97015.03;5013523;28;20037;-77
2023/03/31 07:23:40;;;;;;;53.00;49.60;;;;;;;8.80;89.22;97019.06;4997346;28;20037;-77
2023/03/31 07:26:05;;;;;;;52.65;49.55;;;;;;;8.68;89.46;97006.97;4980778;28;20091;-76
2023/03/31 07:28:31;;;;;;;51.92;49.00;;;;;;;8.73;89.28;97001.59;5016815;28;20045;-76
2023/03/31 07:30:57;;;;;;;52.05;48.85;;;;;;;8.76;89.20;96998.38;5017699;28;20045;-77
2023/03/31 07:33:22;;;;;;;51.75;48.53;;;;;;;8.78;89.07;96993.56;5017636;28;20036;-77
2023/03/31 07:35:47;;;;;;;50.38;47.22;;;;;;;8.73;89.40;96991.66;4985198;28;20037;-77
2023/03/31 07:38:13;;;;;;;49.55;45.85;;;;;;;8.73;89.74;96977.44;5001359;28;20459;-77
2023/03/31 07:40:39;;;;;;;49.80;46.55;;;;;;;8.57;89.40;96971.19;5017880;28;20044;-76
2023/03/31 07:43:05;;;;;;;50.05;46.88;;;;;;;8.76;88.99;96980.41;5017417;28;20029;-76
2023/03/31 07:45:30;;;;;;;49.72;46.63;;;;;;;8.67;89.93;96967.75;5001455;28;20041;-77
2023/03/31 07:47:55;;;;;;;54.50;50.75;;;;;;;8.67;89.59;96963.19;4985102;28;20018;-77
2023/03/31 07:50:21;;;;;;;56.53;52.78;;;;;;;8.74;89.58;96969.13;5000438;28;20041;-76
2023/03/31 07:52:50;;;;;;;53.70;50.30;;;;;;;8.70;89.78;96959.19;5017038;28;20264;-76
2023/03/31 07:55:16;;;;;;;54.00;50.53;;;;;;;8.72;88.95;96957.84;5000462;28;20041;-77
2023/03/31 07:57:42;;;;;;;54.78;51.15;;;;;;;8.84;88.72;96941.53;5016709;28;20037;-77
2023/03/31 08:00:11;;;;;;;54.55;50.60;;;;;;;8.68;89.88;96939.84;5000493;28;20029;-77
2023/03/31 08:02:41;;;;;;;54.40;50.78;;;;;;;8.63;90.28;96923.72;5001053;28;20538;-77
2023/03/31 08:05:07;;;;;;;53.13;49.38;;;;;;;8.63;90.18;96921.06;5016726;28;20498;-76
2023/03/31 08:07:37;;;;;;;55.28;51.20;;;;;;;8.64;89.47;96922.66;5001893;28;20021;-77
2023/03/31 08:10:05;;;;;;;51.42;47.92;;;;;;;8.64;90.75;96912.72;5000174;28;20041;-77
2023/03/31 08:12:30;;;;;;;53.75;50.42;;;;;;;8.65;89.46;96910.84;4983783;28;20044;-77
2023/03/31 08:14:55;;;;;;;52.97;50.05;;;;;;;8.71;89.14;96896.38;5015367;28;20451;-76
2023/03/31 08:17:21;;;;;;;53.47;50.00;;;;;;;8.73;89.55;96891.53;5001917;28;20020;-77
2023/03/31 08:19:46;;;;;;;54.53;51.22;;;;;;;8.78;88.84;96891.56;4984594;28;20037;-76
2023/03/31 08:22:11;;;;;;;53.85;50.88;;;;;;;8.71;90.07;96888.31;5016955;28;20024;-79
2023/03/31 08:24:37;;;;;;;52.20;48.80;;;;;;;8.61;89.96;96877.56;5003510;28;20065;-76
2023/03/31 08:27:02;;;;;;;53.80;50.55;;;;;;;8.75;89.45;96876.00;5023652;28;20028;-76
2023/03/31 08:29:28;;;;;;;52.08;48.72;;;;;;;8.78;89.86;96875.44;4999364;28;20025;-77
2023/03/31 08:31:54;;;;;;;53.70;50.00;;;;;;;8.72;90.14;96857.75;5032864;28;20032;-77
2023/03/31 08:34:19;;;;;;;55.03;51.58;;;;;;;8.73;89.37;96864.69;5045989;28;20044;-77
2023/03/31 08:36:46;;;;;;;54.38;51.03;;;;;;;8.77;90.28;96855.06;4999902;28;20391;-77
2023/03/31 08:39:11;;;;;;;52.35;49.25;;;;;;;8.66;89.89;96850.75;5015530;28;20076;-77
2023/03/31 08:41:55;;;;;;;52.15;48.88;;;;;;;8.74;89.84;96850.22;4998690;28;20055;-76
2023/03/31 08:44:40;;;;;;;51.53;48.40;;;;;;;8.89;89.92;96836.84;5020848;28;20068;-76
2023/03/31 08:47:12;;;;;;;51.75;48.58;;;;;;;8.85;89.37;96816.94;5014461;28;20042;-76
2023/03/31 08:49:48;;;;;;;52.35;49.25;;;;;;;8.88;89.67;96816.44;4994766;28;20033;-76
2023/03/31 08:52:18;;;;;;;55.25;51.83;;;;;;;8.78;89.19;96795.75;4998332;28;20380;-77
2023/03/31 08:54:46;;;;;;;53.75;50.42;;;;;;;8.79;90.03;96780.44;5014238;28;20033;-76
2023/03/31 08:57:16;;;;;;;51.10;48.00;;;;;;;8.91;89.81;96799.78;5014398;28;20025;-77
2023/03/31 08:59:43;;;;;;;53.35;49.70;;;;;;;8.90;89.97;96800.84;4998314;28;20140;-76
2023/03/31 09:02:25;;;;;;;54.97;51.40;;;;;;;9.01;89.65;96791.72;5032135;28;20119;-76
2023/03/31 09:05:04;;;;;;;53.55;50.15;;;;;;;9.01;90.36;96787.16;4981348;28;20037;-77
2023/03/31 09:07:35;;;;;;;53.42;49.90;;;;;;;9.09;89.68;96785.81;4997736;28;20049;-76
2023/03/31 09:10:23;;;;;;;53.20;49.63;;;;;;;9.22;89.37;96785.25;4984709;28;20068;-76
2023/03/31 09:13:01;;;;;;;54.55;51.03;;;;;;;9.23;89.45;96778.84;4997227;28;20425;-76
2023/03/31 09:15:31;;;;;;;57.15;53.65;;;;;;;9.31;89.53;96778.28;4997554;28;20502;-76
2023/03/31 09:18:02;;;;;;;52.13;49.00;;;;;;;9.18;90.20;96773.47;4997373;28;20128;-76
2023/03/31 09:20:33;;;;;;;53.22;49.97;;;;;;;9.24;89.37;96768.91;4997596;28;20038;-77
2023/03/31 09:23:05;;;;;;;51.67;48.50;;;;;;;9.19;90.10;96758.97;4996831;28;20033;-77
2023/03/31 09:25:33;;;;;;;52.03;48.92;;;;;;;9.51;88.90;96762.13;5013765;28;20041;-76
2023/03/31 09:27:59;;;;;;;52.78;49.53;;;;;;;9.57;88.67;96758.34;4985426;28;20029;-76
2023/03/31 09:30:29;;;;;;;53.70;50.47;;;;;;;9.63;89.04;96753.75;5004043;28;20451;-77
2023/03/31 09:33:10;;;;;;;53.90;50.65;;;;;;;9.48;89.66;96749.22;4980797;28;20037;-77
2023/03/31 09:35:36;;;;;;;55.40;52.00;;;;;;;9.27;89.64;96750.34;4997164;28;20406;-77
2023/03/31 09:38:01;;;;;;;55.10;51.83;;;;;;;9.32;89.59;96747.66;4993910;28;20026;-77
2023/03/31 09:40:27;;;;;;;57.63;53.78;;;;;;;9.32;90.06;96736.91;4995886;28;20041;-77
2023/03/31 09:43:01;;;;;;;53.65;50.38;;;;;;;9.35;89.47;96731.00;5014309;28;20036;-77
2023/03/31 09:45:27;;;;;;;55.35;51.92;;;;;;;9.31;90.15;96737.19;4999266;28;20558;-77
2023/03/31 09:48:01;;;;;;;54.65;50.95;;;;;;;9.35;89.72;96741.75;5013861;28;20113;-77
2023/03/31 09:50:29;;;;;;;52.70;49.35;;;;;;;9.39;90.36;96748.19;5015185;28;20037;-76
2023/03/31 09:52:59;;;;;;;53.22;49.88;;;;;;;9.51;89.46;96746.00;4986297;28;20049;-77
2023/03/31 09:55:41;;;;;;;52.13;48.70;;;;;;;9.68;89.55;96743.78;5008771;28;20038;-77
2023/03/31 09:58:12;;;;;;;54.78;51.22;;;;;;;9.86;89.37;96747.78;4997422;28;20163;-77
2023/03/31 10:00:40;;;;;;;54.53;51.10;;;;;;;9.78;89.08;96750.22;4996904;28;20041;-78
2023/03/31 10:03:08;;;;;;;54.28;50.67;;;;;;;9.73;89.17;96733.03;4997059;28;20057;-77
2023/03/31 10:05:36;;;;;;;52.35;49.38;;;;;;;9.71;88.92;96729.81;4997253;28;20049;-77
2023/03/31 10:08:33;;;;;;;52.50;49.40;;;;;;;9.81;89.09;96749.66;4996992;28;20017;-77
2023/03/31 10:11:01;;;;;;;52.80;49.50;;;;;;;9.68;90.04;96767.97;5013181;28;20044;-77
2023/03/31 10:13:45;;;;;;;50.60;47.42;;;;;;;9.49;90.30;96752.72;5012978;28;20029;-77
2023/03/31 10:16:23;;;;;;;51.80;48.60;;;;;;;9.53;89.81;96726.91;5013117;28;20399;-76
2023/03/31 10:18:49;;;;;;;56.65;53.85;;;;;;;9.43;88.91;96770.72;5014190;28;20073;-77
2023/03/31 10:21:25;;;;;;;56.83;53.92;;;;;;;9.44;88.35;96766.16;4998198;28;20041;-76
2023/03/31 10:23:52;;;;;;;55.83;53.03;;;;;;;9.17;87.69;96776.44;5013758;28;20505;-77
2023/03/31 10:26:20;;;;;;;54.67;52.08;;;;;;;9.15;86.92;96779.38;4997551;28;20612;-76
2023/03/31 10:28:49;;;;;;;54.47;51.78;;;;;;;9.10;87.10;96782.06;5014153;28;20079;-77
2023/03/31 10:31:15;;;;;;;52.58;49.85;;;;;;;9.13;86.07;96786.88;4997390;28;20091;-76
2023/03/31 10:33:47;;;;;;;53.80;51.30;;;;;;;9.05;85.39;96784.75;5013911;28;20472;-77
2023/03/31 10:36:22;;;;;;;52.70;50.20;;;;;;;8.99;85.78;96791.19;4999669;28;20033;-76
2023/03/31 10:38:49;;;;;;;56.15;53.65;;;;;;;8.81;86.88;96789.84;5011079;28;20041;-76
2023/03/31 10:41:19;;;;;;;54.47;51.55;;;;;;;8.84;86.68;96783.97;4995202;28;20114;-77
2023/03/31 10:43:55;;;;;;;53.05;50.55;;;;;;;8.96;86.63;96778.31;4997695;28;20116;-77
2023/03/31 10:46:56;;;;;;;52.88;50.38;;;;;;;8.88;85.60;96778.84;4986395;28;20038;-77
2023/03/31 10:49:21;;;;;;;51.50;48.90;;;;;;;9.08;87.29;96776.16;4997807;28;20033;-77
2023/03/31 10:51:52;;;;;;;55.13;52.38;;;;;;;8.91;86.82;96794.41;5014562;28;20467;-77
2023/03/31 10:54:17;;;;;;;51.55;49.05;;;;;;;8.97;88.32;96790.66;4997744;28;20044;-77
2023/03/31 10:56:48;;;;;;;54.78;51.92;;;;;;;9.02;87.91;96785.28;5010782;28;20033;-76
2023/03/31 10:59:35;;;;;;;52.67;49.88;;;;;;;8.68;88.47;96800.31;5022253;28;20045;-76
2023/03/31 11:02:38;;;;;;;50.70;48.20;;;;;;;8.66;88.64;96797.09;4998852;28;20087;-77
2023/03/31 11:05:22;;;;;;;52.15;49.45;;;;;;;8.64;88.54;96804.56;5017716;28;20087;-76
2023/03/31 11:08:02;;;;;;;52.88;50.47;;;;;;;8.40;87.66;96804.28;4999653;28;20115;-77
2023/03/31 11:10:38;;;;;;;52.13;49.55;;;;;;;8.29;87.19;96805.31;5018047;28;20095;-76
2023/03/31 11:13:25;;;;;;;52.95;50.55;;;;;;;8.37;87.95;96787.88;4996392;28;20699;-76
2023/03/31 11:16:02;;;;;;;51.65;49.38;;;;;;;8.41;86.58;96778.22;5011530;28;20048;-77
2023/03/31 11:18:41;;;;;;;50.58;48.38;;;;;;;8.39;85.64;96775.84;5007013;28;20103;-76
2023/03/31 11:21:22;;;;;;;52.20;49.72;;;;;;;8.65;86.14;96774.81;5001383;28;20033;-76
2023/03/31 11:23:57;;;;;;;50.70;48.47;;;;;;;8.84;83.90;96772.41;5035238;28;20038;-76
2023/03/31 11:26:46;;;;;;;47.45;45.35;;;;;;;8.86;84.82;96775.63;5005437;28;20540;-76
2023/03/31 11:29:24;;;;;;;48.97;46.78;;;;;;;8.77;84.63;96772.69;4988084;28;20029;-76
2023/03/31 11:31:52;;;;;;;40.15;38.20;;;;;;;8.86;82.46;96786.38;5000612;28;20053;-74
2023/03/31 11:34:28;;;;;;;36.65;34.92;;;;;;;8.84;81.48;96772.41;4999981;28;20060;-74
2023/03/31 11:37:16;;;;;;;30.90;29.40;;;;;;;8.79;82.96;96780.44;5017079;28;20033;-75
2023/03/31 11:39:47;;;;;;;35.20;33.63;;;;;;;8.75;81.80;96768.66;5014483;28;20033;-75
2023/03/31 11:42:20;;;;;;;32.75;31.33;;;;;;;8.80;81.51;96755.19;5017139;28;20061;-75